sensor_id;sensor_type;location;lat;lon;timestamp;P1;durP1;ratioP1;P2;durP2;ratioP2
4462;SDS011;2244;50.200;8.220;2023-02-28T00:02:17;7.43;;;3.30;;
4462;SDS011;2244;50.200;8.220;2023-02-28T00:04:44;9.17;;;3.60;;
4462;SDS011;2244;50.200;8.220;2023-02-28T00:07:13;7.23;;;3.27;;
4462;SDS011;2244;50.200;8.220;2023-02-28T00:09:41;7.57;;;3.37;;
4462;SDS011;2244;50.200;8.220;2023-02-28T00:12:08;7.13;;;3.20;;
4462;SDS011;2244;50.200;8.220;2023-02-28T00:14:37;7.50;;;3.23;;
4462;SDS011;2244;50.200;8.220;2023-02-28T00:17:04;10.13;;;3.57;;
4462;SDS011;2244;50.200;8.220;2023-02-28T00:19:32;10.20;;;4.20;;
4462;SDS011;2244;50.200;8.220;2023-02-28T00:21:59;8.60;;;3.70;;
4462;SDS011;2244;50.200;8.220;2023-02-28T00:24:26;7.53;;;3.87;;
4462;SDS011;2244;50.200;8.220;2023-02-28T00:26:54;8.60;;;3.67;;
4462;SDS011;2244;50.200;8.220;2023-02-28T00:29:21;9.43;;;4.30;;
4462;SDS011;2244;50.200;8.220;2023-02-28T00:31:49;8.73;;;4.20;;
4462;SDS011;2244;50.200;8.220;2023-02-28T00:34:16;11.20;;;4.47;;
4462;SDS011;2244;50.200;8.220;2023-02-28T00:36:43;8.80;;;4.30;;
4462;SDS011;2244;50.200;8.220;2023-02-28T00:39:12;11.13;;;4.30;;
4462;SDS011;2244;50.200;8.220;2023-02-28T00:41:39;9.87;;;4.47;;
4462;SDS011;2244;50.200;8.220;2023-02-28T00:44:07;10.67;;;4.30;;
4462;SDS011;2244;50.200;8.220;2023-02-28T00:46:34;10.50;;;5.00;;
4462;SDS011;2244;50.200;8.220;2023-02-28T00:49:02;9.93;;;4.37;;
4462;SDS011;2244;50.200;8.220;2023-02-28T00:51:29;9.53;;;4.63;;
4462;SDS011;2244;50.200;8.220;2023-02-28T00:53:56;9.83;;;4.67;;
4462;SDS011;2244;50.200;8.220;2023-02-28T00:56:24;8.87;;;4.33;;
4462;SDS011;2244;50.200;8.220;2023-02-28T00:58:51;8.70;;;4.93;;
4462;SDS011;2244;50.200;8.220;2023-02-28T01:01:18;9.87;;;5.20;;
4462;SDS011;2244;50.200;8.220;2023-02-28T01:03:46;10.00;;;4.80;;
4462;SDS011;2244;50.200;8.220;2023-02-28T01:06:13;9.50;;;5.03;;
4462;SDS011;2244;50.200;8.220;2023-02-28T01:08:41;9.03;;;5.40;;
4462;SDS011;2244;50.200;8.220;2023-02-28T01:11:12;10.13;;;5.60;;
4462;SDS011;2244;50.200;8.220;2023-02-28T01:13:41;10.50;;;5.20;;
4462;SDS011;2244;50.200;8.220;2023-02-28T01:16:08;9.20;;;5.47;;
4462;SDS011;2244;50.200;8.220;2023-02-28T01:18:36;11.00;;;5.80;;
4462;SDS011;2244;50.200;8.220;2023-02-28T01:21:09;10.50;;;5.00;;
4462;SDS011;2244;50.200;8.220;2023-02-28T01:23:33;10.07;;;5.50;;
4462;SDS011;2244;50.200;8.220;2023-02-28T01:26:05;9.37;;;5.13;;
4462;SDS011;2244;50.200;8.220;2023-02-28T01:28:32;11.30;;;5.77;;
4462;SDS011;2244;50.200;8.220;2023-02-28T01:30:59;9.37;;;5.30;;
4462;SDS011;2244;50.200;8.220;2023-02-28T01:33:27;9.33;;;5.97;;
4462;SDS011;2244;50.200;8.220;2023-02-28T01:36:02;9.73;;;5.67;;
4462;SDS011;2244;50.200;8.220;2023-02-28T01:38:26;15.13;;;7.10;;
4462;SDS011;2244;50.200;8.220;2023-02-28T01:40:54;11.60;;;5.70;;
4462;SDS011;2244;50.200;8.220;2023-02-28T01:43:26;11.10;;;6.40;;
4462;SDS011;2244;50.200;8.220;2023-02-28T01:45:54;11.10;;;6.60;;
4462;SDS011;2244;50.200;8.220;2023-02-28T01:48:24;11.43;;;5.50;;
4462;SDS011;2244;50.200;8.220;2023-02-28T01:50:52;12.50;;;5.93;;
4462;SDS011;2244;50.200;8.220;2023-02-28T01:53:21;11.00;;;6.10;;
4462;SDS011;2244;50.200;8.220;2023-02-28T01:55:49;13.63;;;7.10;;
4462;SDS011;2244;50.200;8.220;2023-02-28T01:58:18;11.47;;;6.40;;
4462;SDS011;2244;50.200;8.220;2023-02-28T02:00:46;10.47;;;6.50;;
4462;SDS011;2244;50.200;8.220;2023-02-28T02:03:14;11.53;;;6.80;;
4462;SDS011;2244;50.200;8.220;2023-02-28T02:05:44;12.20;;;6.97;;
4462;SDS011;2244;50.200;8.220;2023-02-28T02:08:17;12.03;;;7.17;;
4462;SDS011;2244;50.200;8.220;2023-02-28T02:10:46;10.40;;;6.30;;
4462;SDS011;2244;50.200;8.220;2023-02-28T02:13:21;10.90;;;6.50;;
4462;SDS011;2244;50.200;8.220;2023-02-28T02:16:00;12.20;;;6.40;;
4462;SDS011;2244;50.200;8.220;2023-02-28T02:21:03;13.17;;;6.90;;
4462;SDS011;2244;50.200;8.220;2023-02-28T02:23:33;13.03;;;7.33;;
4462;SDS011;2244;50.200;8.220;2023-02-28T02:26:10;11.20;;;5.87;;
4462;SDS011;2244;50.200;8.220;2023-02-28T02:31:38;12.60;;;6.63;;
4462;SDS011;2244;50.200;8.220;2023-02-28T02:34:10;10.23;;;6.40;;
4462;SDS011;2244;50.200;8.220;2023-02-28T02:36:42;9.87;;;5.83;;
4462;SDS011;2244;50.200;8.220;2023-02-28T02:39:12;10.80;;;6.30;;
4462;SDS011;2244;50.200;8.220;2023-02-28T02:41:40;12.00;;;6.57;;
4462;SDS011;2244;50.200;8.220;2023-02-28T02:44:10;10.20;;;6.37;;
4462;SDS011;2244;50.200;8.220;2023-02-28T02:46:37;11.37;;;6.23;;
4462;SDS011;2244;50.200;8.220;2023-02-28T02:49:06;11.50;;;6.43;;
4462;SDS011;2244;50.200;8.220;2023-02-28T02:51:33;11.80;;;6.50;;
4462;SDS011;2244;50.200;8.220;2023-02-28T02:54:13;10.93;;;6.63;;
4462;SDS011;2244;50.200;8.220;2023-02-28T02:56:31;18.77;;;6.43;;
4462;SDS011;2244;50.200;8.220;2023-02-28T02:59:01;10.93;;;6.60;;
4462;SDS011;2244;50.200;8.220;2023-02-28T03:01:29;11.40;;;6.30;;
4462;SDS011;2244;50.200;8.220;2023-02-28T03:04:04;11.50;;;6.70;;
4462;SDS011;2244;50.200;8.220;2023-02-28T03:06:27;12.67;;;7.30;;
4462;SDS011;2244;50.200;8.220;2023-02-28T03:08:54;11.50;;;6.20;;
4462;SDS011;2244;50.200;8.220;2023-02-28T03:11:22;12.53;;;7.07;;
4462;SDS011;2244;50.200;8.220;2023-02-28T03:21:43;12.97;;;7.70;;
4462;SDS011;2244;50.200;8.220;2023-02-28T03:24:16;10.67;;;6.70;;
4462;SDS011;2244;50.200;8.220;2023-02-28T03:26:47;14.93;;;7.30;;
4462;SDS011;2244;50.200;8.220;2023-02-28T03:32:02;11.37;;;7.03;;
4462;SDS011;2244;50.200;8.220;2023-02-28T03:34:29;12.20;;;7.13;;
4462;SDS011;2244;50.200;8.220;2023-02-28T03:36:56;12.33;;;7.03;;
4462;SDS011;2244;50.200;8.220;2023-02-28T03:39:25;12.13;;;7.37;;
4462;SDS011;2244;50.200;8.220;2023-02-28T03:42:00;11.83;;;7.73;;
4462;SDS011;2244;50.200;8.220;2023-02-28T03:47:11;11.13;;;6.93;;
4462;SDS011;2244;50.200;8.220;2023-02-28T03:49:54;13.73;;;8.10;;
4462;SDS011;2244;50.200;8.220;2023-02-28T03:52:22;16.70;;;8.30;;
4462;SDS011;2244;50.200;8.220;2023-02-28T03:54:52;13.87;;;8.60;;
4462;SDS011;2244;50.200;8.220;2023-02-28T03:57:37;11.00;;;6.83;;
4462;SDS011;2244;50.200;8.220;2023-02-28T04:00:06;12.87;;;7.90;;
4462;SDS011;2244;50.200;8.220;2023-02-28T04:02:33;12.50;;;7.60;;
4462;SDS011;2244;50.200;8.220;2023-02-28T04:05:00;14.70;;;8.63;;
4462;SDS011;2244;50.200;8.220;2023-02-28T04:07:30;14.03;;;8.20;;
4462;SDS011;2244;50.200;8.220;2023-02-28T04:09:58;12.47;;;8.10;;
4462;SDS011;2244;50.200;8.220;2023-02-28T04:12:26;11.10;;;7.40;;
4462;SDS011;2244;50.200;8.220;2023-02-28T04:14:53;12.60;;;7.80;;
4462;SDS011;2244;50.200;8.220;2023-02-28T04:17:20;12.33;;;7.60;;
4462;SDS011;2244;50.200;8.220;2023-02-28T04:19:48;12.20;;;7.80;;
4462;SDS011;2244;50.200;8.220;2023-02-28T04:22:16;17.30;;;7.73;;
4462;SDS011;2244;50.200;8.220;2023-02-28T04:24:44;13.77;;;8.87;;
4462;SDS011;2244;50.200;8.220;2023-02-28T04:27:11;14.40;;;7.43;;
4462;SDS011;2244;50.200;8.220;2023-02-28T04:29:38;13.00;;;7.57;;
4462;SDS011;2244;50.200;8.220;2023-02-28T04:32:07;14.03;;;7.47;;
4462;SDS011;2244;50.200;8.220;2023-02-28T04:34:36;12.20;;;7.73;;
4462;SDS011;2244;50.200;8.220;2023-02-28T04:37:03;13.80;;;8.10;;
4462;SDS011;2244;50.200;8.220;2023-02-28T04:39:34;12.70;;;8.20;;
4462;SDS011;2244;50.200;8.220;2023-02-28T04:42:01;11.80;;;7.53;;
4462;SDS011;2244;50.200;8.220;2023-02-28T04:44:28;15.37;;;8.77;;
4462;SDS011;2244;50.200;8.220;2023-02-28T04:46:55;12.40;;;7.30;;
4462;SDS011;2244;50.200;8.220;2023-02-28T04:49:23;12.27;;;7.63;;
4462;SDS011;2244;50.200;8.220;2023-02-28T04:51:50;13.03;;;8.40;;
4462;SDS011;2244;50.200;8.220;2023-02-28T04:54:19;13.30;;;7.87;;
4462;SDS011;2244;50.200;8.220;2023-02-28T04:56:46;12.33;;;7.97;;
4462;SDS011;2244;50.200;8.220;2023-02-28T04:59:16;14.87;;;8.87;;
4462;SDS011;2244;50.200;8.220;2023-02-28T05:01:45;14.20;;;8.90;;
4462;SDS011;2244;50.200;8.220;2023-02-28T05:04:12;13.80;;;8.77;;
4462;SDS011;2244;50.200;8.220;2023-02-28T05:06:39;13.40;;;7.70;;
4462;SDS011;2244;50.200;8.220;2023-02-28T05:09:06;12.93;;;8.13;;
4462;SDS011;2244;50.200;8.220;2023-02-28T05:11:34;12.40;;;7.10;;
4462;SDS011;2244;50.200;8.220;2023-02-28T05:14:02;12.80;;;7.80;;
4462;SDS011;2244;50.200;8.220;2023-02-28T05:16:30;13.70;;;7.93;;
4462;SDS011;2244;50.200;8.220;2023-02-28T05:18:58;13.70;;;7.50;;
4462;SDS011;2244;50.200;8.220;2023-02-28T05:21:29;16.97;;;7.83;;
4462;SDS011;2244;50.200;8.220;2023-02-28T05:23:58;14.70;;;7.30;;
4462;SDS011;2244;50.200;8.220;2023-02-28T05:26:26;13.10;;;8.37;;
4462;SDS011;2244;50.200;8.220;2023-02-28T05:28:54;13.37;;;7.47;;
4462;SDS011;2244;50.200;8.220;2023-02-28T05:31:22;13.90;;;8.23;;
4462;SDS011;2244;50.200;8.220;2023-02-28T05:33:49;12.93;;;7.77;;
4462;SDS011;2244;50.200;8.220;2023-02-28T05:36:17;12.97;;;8.27;;
4462;SDS011;2244;50.200;8.220;2023-02-28T05:38:46;13.27;;;8.10;;
4462;SDS011;2244;50.200;8.220;2023-02-28T05:41:14;10.17;;;5.97;;
4462;SDS011;2244;50.200;8.220;2023-02-28T05:43:42;12.87;;;7.87;;
4462;SDS011;2244;50.200;8.220;2023-02-28T05:46:10;12.80;;;7.27;;
4462;SDS011;2244;50.200;8.220;2023-02-28T05:48:38;11.77;;;6.77;;
4462;SDS011;2244;50.200;8.220;2023-02-28T05:51:06;12.10;;;6.50;;
4462;SDS011;2244;50.200;8.220;2023-02-28T05:53:34;11.30;;;7.57;;
4462;SDS011;2244;50.200;8.220;2023-02-28T05:56:01;14.13;;;7.73;;
4462;SDS011;2244;50.200;8.220;2023-02-28T05:58:29;11.87;;;7.17;;
4462;SDS011;2244;50.200;8.220;2023-02-28T06:00:58;12.27;;;7.00;;
4462;SDS011;2244;50.200;8.220;2023-02-28T06:03:25;12.03;;;7.20;;
4462;SDS011;2244;50.200;8.220;2023-02-28T06:05:53;11.43;;;7.00;;
4462;SDS011;2244;50.200;8.220;2023-02-28T06:08:21;13.60;;;6.50;;
4462;SDS011;2244;50.200;8.220;2023-02-28T06:10:48;11.20;;;6.90;;
4462;SDS011;2244;50.200;8.220;2023-02-28T06:13:16;11.43;;;7.50;;
4462;SDS011;2244;50.200;8.220;2023-02-28T06:15:43;12.30;;;7.20;;
4462;SDS011;2244;50.200;8.220;2023-02-28T06:18:10;12.67;;;7.83;;
4462;SDS011;2244;50.200;8.220;2023-02-28T06:20:38;12.33;;;7.13;;
4462;SDS011;2244;50.200;8.220;2023-02-28T06:23:05;10.57;;;6.60;;
4462;SDS011;2244;50.200;8.220;2023-02-28T06:25:32;12.70;;;7.43;;
4462;SDS011;2244;50.200;8.220;2023-02-28T06:28:00;14.57;;;7.47;;
4462;SDS011;2244;50.200;8.220;2023-02-28T06:30:27;11.80;;;6.57;;
4462;SDS011;2244;50.200;8.220;2023-02-28T06:32:56;10.77;;;6.20;;
4462;SDS011;2244;50.200;8.220;2023-02-28T06:35:23;12.53;;;6.67;;
4462;SDS011;2244;50.200;8.220;2023-02-28T06:37:51;12.07;;;6.53;;
4462;SDS011;2244;50.200;8.220;2023-02-28T06:40:18;11.03;;;6.30;;
4462;SDS011;2244;50.200;8.220;2023-02-28T06:42:46;10.10;;;6.30;;
4462;SDS011;2244;50.200;8.220;2023-02-28T06:45:13;11.50;;;6.30;;
4462;SDS011;2244;50.200;8.220;2023-02-28T06:47:41;11.20;;;6.83;;
4462;SDS011;2244;50.200;8.220;2023-02-28T06:50:11;11.37;;;6.90;;
4462;SDS011;2244;50.200;8.220;2023-02-28T06:52:39;10.40;;;5.90;;
4462;SDS011;2244;50.200;8.220;2023-02-28T06:55:07;12.57;;;6.50;;
4462;SDS011;2244;50.200;8.220;2023-02-28T06:57:35;10.50;;;6.20;;
4462;SDS011;2244;50.200;8.220;2023-02-28T07:00:04;12.00;;;6.77;;
4462;SDS011;2244;50.200;8.220;2023-02-28T07:02:32;9.70;;;5.80;;
4462;SDS011;2244;50.200;8.220;2023-02-28T07:04:59;11.23;;;6.20;;
4462;SDS011;2244;50.200;8.220;2023-02-28T07:07:26;12.40;;;6.47;;
4462;SDS011;2244;50.200;8.220;2023-02-28T07:09:54;10.70;;;5.87;;
4462;SDS011;2244;50.200;8.220;2023-02-28T07:12:21;11.27;;;5.50;;
4462;SDS011;2244;50.200;8.220;2023-02-28T07:14:49;13.77;;;6.00;;
4462;SDS011;2244;50.200;8.220;2023-02-28T07:17:16;13.07;;;6.10;;
4462;SDS011;2244;50.200;8.220;2023-02-28T07:19:43;11.30;;;6.07;;
4462;SDS011;2244;50.200;8.220;2023-02-28T07:22:11;11.43;;;6.40;;
4462;SDS011;2244;50.200;8.220;2023-02-28T07:24:40;12.07;;;5.60;;
4462;SDS011;2244;50.200;8.220;2023-02-28T07:27:07;12.27;;;6.83;;
4462;SDS011;2244;50.200;8.220;2023-02-28T07:29:35;13.03;;;6.60;;
4462;SDS011;2244;50.200;8.220;2023-02-28T07:32:02;12.73;;;6.80;;
4462;SDS011;2244;50.200;8.220;2023-02-28T07:34:30;10.53;;;6.13;;
4462;SDS011;2244;50.200;8.220;2023-02-28T07:36:57;17.10;;;8.03;;
4462;SDS011;2244;50.200;8.220;2023-02-28T07:39:25;14.50;;;7.00;;
4462;SDS011;2244;50.200;8.220;2023-02-28T07:41:52;14.03;;;6.27;;
4462;SDS011;2244;50.200;8.220;2023-02-28T07:44:19;11.53;;;6.20;;
4462;SDS011;2244;50.200;8.220;2023-02-28T07:46:47;11.63;;;6.13;;
4462;SDS011;2244;50.200;8.220;2023-02-28T07:49:14;10.50;;;5.60;;
4462;SDS011;2244;50.200;8.220;2023-02-28T07:51:42;13.53;;;8.10;;
4462;SDS011;2244;50.200;8.220;2023-02-28T07:54:09;12.17;;;6.73;;
4462;SDS011;2244;50.200;8.220;2023-02-28T07:56:37;11.20;;;5.53;;
4462;SDS011;2244;50.200;8.220;2023-02-28T07:59:04;11.60;;;5.50;;
4462;SDS011;2244;50.200;8.220;2023-02-28T08:01:32;10.27;;;4.90;;
4462;SDS011;2244;50.200;8.220;2023-02-28T08:03:59;10.93;;;5.80;;
4462;SDS011;2244;50.200;8.220;2023-02-28T08:06:26;9.10;;;5.10;;
4462;SDS011;2244;50.200;8.220;2023-02-28T08:08:54;10.37;;;5.37;;
4462;SDS011;2244;50.200;8.220;2023-02-28T08:11:22;12.50;;;6.50;;
4462;SDS011;2244;50.200;8.220;2023-02-28T08:13:49;10.53;;;5.53;;
4462;SDS011;2244;50.200;8.220;2023-02-28T08:16:17;11.60;;;5.50;;
4462;SDS011;2244;50.200;8.220;2023-02-28T08:18:46;12.87;;;6.30;;
4462;SDS011;2244;50.200;8.220;2023-02-28T08:21:13;12.50;;;6.80;;
4462;SDS011;2244;50.200;8.220;2023-02-28T08:23:41;14.43;;;5.37;;
4462;SDS011;2244;50.200;8.220;2023-02-28T08:26:08;9.93;;;5.10;;
4462;SDS011;2244;50.200;8.220;2023-02-28T08:28:36;10.90;;;6.10;;
4462;SDS011;2244;50.200;8.220;2023-02-28T08:31:06;12.87;;;6.57;;
4462;SDS011;2244;50.200;8.220;2023-02-28T08:33:32;11.30;;;5.33;;
4462;SDS011;2244;50.200;8.220;2023-02-28T08:36:00;10.70;;;5.40;;
4462;SDS011;2244;50.200;8.220;2023-02-28T08:38:27;10.57;;;5.60;;
4462;SDS011;2244;50.200;8.220;2023-02-28T08:40:59;11.83;;;6.33;;
4462;SDS011;2244;50.200;8.220;2023-02-28T08:43:27;11.67;;;6.60;;
4462;SDS011;2244;50.200;8.220;2023-02-28T08:45:55;11.37;;;5.73;;
4462;SDS011;2244;50.200;8.220;2023-02-28T08:48:24;11.27;;;5.13;;
4462;SDS011;2244;50.200;8.220;2023-02-28T08:50:59;10.60;;;5.37;;
4462;SDS011;2244;50.200;8.220;2023-02-28T08:53:29;12.63;;;6.80;;
4462;SDS011;2244;50.200;8.220;2023-02-28T08:55:58;10.53;;;5.50;;
4462;SDS011;2244;50.200;8.220;2023-02-28T08:58:25;10.83;;;4.80;;
4462;SDS011;2244;50.200;8.220;2023-02-28T09:00:53;9.50;;;4.70;;
4462;SDS011;2244;50.200;8.220;2023-02-28T09:03:21;9.30;;;4.37;;
4462;SDS011;2244;50.200;8.220;2023-02-28T09:05:57;11.13;;;5.40;;
4462;SDS011;2244;50.200;8.220;2023-02-28T09:08:25;9.20;;;4.70;;
4462;SDS011;2244;50.200;8.220;2023-02-28T09:10:53;15.70;;;5.73;;
4462;SDS011;2244;50.200;8.220;2023-02-28T09:13:22;9.23;;;5.03;;
4462;SDS011;2244;50.200;8.220;2023-02-28T09:15:50;9.30;;;4.23;;
4462;SDS011;2244;50.200;8.220;2023-02-28T09:18:17;8.37;;;3.50;;
4462;SDS011;2244;50.200;8.220;2023-02-28T09:20:45;10.10;;;3.80;;
4462;SDS011;2244;50.200;8.220;2023-02-28T09:23:13;11.60;;;5.47;;
4462;SDS011;2244;50.200;8.220;2023-02-28T09:25:48;9.30;;;3.77;;
4462;SDS011;2244;50.200;8.220;2023-02-28T09:28:15;8.60;;;3.90;;
4462;SDS011;2244;50.200;8.220;2023-02-28T09:30:46;9.83;;;4.00;;
4462;SDS011;2244;50.200;8.220;2023-02-28T09:33:15;9.57;;;4.10;;
4462;SDS011;2244;50.200;8.220;2023-02-28T09:35:42;8.73;;;3.83;;
4462;SDS011;2244;50.200;8.220;2023-02-28T09:38:10;9.30;;;3.70;;
4462;SDS011;2244;50.200;8.220;2023-02-28T09:40:56;9.40;;;3.80;;
4462;SDS011;2244;50.200;8.220;2023-02-28T09:43:25;9.20;;;3.97;;
4462;SDS011;2244;50.200;8.220;2023-02-28T09:45:56;9.63;;;4.60;;
4462;SDS011;2244;50.200;8.220;2023-02-28T09:48:25;8.23;;;3.97;;
4462;SDS011;2244;50.200;8.220;2023-02-28T09:50:59;10.33;;;4.00;;
4462;SDS011;2244;50.200;8.220;2023-02-28T09:53:29;10.10;;;4.60;;
4462;SDS011;2244;50.200;8.220;2023-02-28T09:55:57;11.07;;;5.03;;
4462;SDS011;2244;50.200;8.220;2023-02-28T09:58:33;13.33;;;4.20;;
4462;SDS011;2244;50.200;8.220;2023-02-28T10:01:16;12.10;;;4.30;;
4462;SDS011;2244;50.200;8.220;2023-02-28T10:03:41;9.83;;;4.30;;
4462;SDS011;2244;50.200;8.220;2023-02-28T10:06:14;10.17;;;4.27;;
4462;SDS011;2244;50.200;8.220;2023-02-28T10:08:43;10.60;;;4.27;;
4462;SDS011;2244;50.200;8.220;2023-02-28T10:11:12;8.87;;;4.20;;
4462;SDS011;2244;50.200;8.220;2023-02-28T10:13:53;11.00;;;3.93;;
4462;SDS011;2244;50.200;8.220;2023-02-28T10:16:29;11.30;;;5.03;;
4462;SDS011;2244;50.200;8.220;2023-02-28T10:18:58;9.20;;;4.23;;
4462;SDS011;2244;50.200;8.220;2023-02-28T10:21:26;8.50;;;4.03;;
4462;SDS011;2244;50.200;8.220;2023-02-28T10:23:53;8.40;;;4.30;;
4462;SDS011;2244;50.200;8.220;2023-02-28T10:26:21;10.50;;;4.73;;
4462;SDS011;2244;50.200;8.220;2023-02-28T10:28:51;10.00;;;4.20;;
4462;SDS011;2244;50.200;8.220;2023-02-28T10:31:19;9.20;;;4.33;;
4462;SDS011;2244;50.200;8.220;2023-02-28T10:33:49;9.03;;;4.60;;
4462;SDS011;2244;50.200;8.220;2023-02-28T10:36:18;9.33;;;4.63;;
4462;SDS011;2244;50.200;8.220;2023-02-28T10:38:46;9.97;;;4.50;;
4462;SDS011;2244;50.200;8.220;2023-02-28T10:41:26;9.00;;;4.60;;
4462;SDS011;2244;50.200;8.220;2023-02-28T10:43:45;8.87;;;4.40;;
4462;SDS011;2244;50.200;8.220;2023-02-28T10:46:14;9.73;;;4.80;;
4462;SDS011;2244;50.200;8.220;2023-02-28T10:48:44;11.10;;;4.80;;
4462;SDS011;2244;50.200;8.220;2023-02-28T10:51:15;10.03;;;4.87;;
4462;SDS011;2244;50.200;8.220;2023-02-28T10:56:16;9.50;;;4.30;;
4462;SDS011;2244;50.200;8.220;2023-02-28T11:01:34;10.43;;;4.83;;
4462;SDS011;2244;50.200;8.220;2023-02-28T11:03:53;10.53;;;5.13;;
4462;SDS011;2244;50.200;8.220;2023-02-28T11:06:21;10.10;;;5.27;;
4462;SDS011;2244;50.200;8.220;2023-02-28T11:08:55;9.70;;;4.90;;
4462;SDS011;2244;50.200;8.220;2023-02-28T11:11:19;16.20;;;4.97;;
4462;SDS011;2244;50.200;8.220;2023-02-28T11:13:48;10.00;;;5.00;;
4462;SDS011;2244;50.200;8.220;2023-02-28T11:16:17;9.10;;;4.53;;
4462;SDS011;2244;50.200;8.220;2023-02-28T11:18:50;10.13;;;4.73;;
4462;SDS011;2244;50.200;8.220;2023-02-28T11:21:18;11.83;;;5.33;;
4462;SDS011;2244;50.200;8.220;2023-02-28T11:23:45;11.70;;;5.83;;
4462;SDS011;2244;50.200;8.220;2023-02-28T11:26:13;11.30;;;5.23;;
4462;SDS011;2244;50.200;8.220;2023-02-28T11:28:41;8.80;;;4.87;;
4462;SDS011;2244;50.200;8.220;2023-02-28T11:33:42;51.10;;;7.10;;
4462;SDS011;2244;50.200;8.220;2023-02-28T11:36:21;9.57;;;4.80;;
4462;SDS011;2244;50.200;8.220;2023-02-28T11:38:52;10.33;;;5.40;;
4462;SDS011;2244;50.200;8.220;2023-02-28T11:41:23;9.73;;;4.73;;
4462;SDS011;2244;50.200;8.220;2023-02-28T11:46:33;11.03;;;5.17;;
4462;SDS011;2244;50.200;8.220;2023-02-28T11:51:35;10.97;;;5.10;;
4462;SDS011;2244;50.200;8.220;2023-02-28T11:54:11;10.00;;;5.17;;
4462;SDS011;2244;50.200;8.220;2023-02-28T11:56:39;10.40;;;5.37;;
4462;SDS011;2244;50.200;8.220;2023-02-28T12:01:59;10.17;;;5.37;;
4462;SDS011;2244;50.200;8.220;2023-02-28T12:04:28;12.23;;;5.37;;
4462;SDS011;2244;50.200;8.220;2023-02-28T12:09:42;11.00;;;5.83;;
4462;SDS011;2244;50.200;8.220;2023-02-28T12:12:23;11.40;;;5.40;;
4462;SDS011;2244;50.200;8.220;2023-02-28T12:17:30;10.20;;;5.60;;
4462;SDS011;2244;50.200;8.220;2023-02-28T12:19:59;10.03;;;5.37;;
4462;SDS011;2244;50.200;8.220;2023-02-28T12:22:31;9.93;;;5.43;;
4462;SDS011;2244;50.200;8.220;2023-02-28T12:27:41;10.57;;;5.47;;
4462;SDS011;2244;50.200;8.220;2023-02-28T12:30:16;10.83;;;5.07;;
4462;SDS011;2244;50.200;8.220;2023-02-28T12:32:43;10.40;;;5.20;;
4462;SDS011;2244;50.200;8.220;2023-02-28T12:35:12;10.77;;;5.90;;
4462;SDS011;2244;50.200;8.220;2023-02-28T12:37:47;10.63;;;5.40;;
4462;SDS011;2244;50.200;8.220;2023-02-28T12:40:15;11.43;;;5.97;;
4462;SDS011;2244;50.200;8.220;2023-02-28T12:42:46;11.93;;;6.37;;
4462;SDS011;2244;50.200;8.220;2023-02-28T12:45:17;12.47;;;6.40;;
4462;SDS011;2244;50.200;8.220;2023-02-28T12:47:43;9.97;;;5.30;;
4462;SDS011;2244;50.200;8.220;2023-02-28T12:50:11;14.73;;;6.70;;
4462;SDS011;2244;50.200;8.220;2023-02-28T12:52:52;17.50;;;6.93;;
4462;SDS011;2244;50.200;8.220;2023-02-28T12:55:20;12.57;;;6.47;;
4462;SDS011;2244;50.200;8.220;2023-02-28T12:57:52;10.90;;;5.63;;
4462;SDS011;2244;50.200;8.220;2023-02-28T13:00:19;12.03;;;6.13;;
4462;SDS011;2244;50.200;8.220;2023-02-28T13:03:09;13.30;;;6.67;;
4462;SDS011;2244;50.200;8.220;2023-02-28T13:05:50;13.93;;;7.70;;
4462;SDS011;2244;50.200;8.220;2023-02-28T13:11:05;14.73;;;6.50;;
4462;SDS011;2244;50.200;8.220;2023-02-28T13:13:36;12.67;;;6.57;;
4462;SDS011;2244;50.200;8.220;2023-02-28T13:16:04;11.33;;;6.20;;
4462;SDS011;2244;50.200;8.220;2023-02-28T13:18:36;12.47;;;6.63;;
4462;SDS011;2244;50.200;8.220;2023-02-28T13:21:06;12.87;;;6.47;;
4462;SDS011;2244;50.200;8.220;2023-02-28T13:31:21;11.73;;;6.37;;
4462;SDS011;2244;50.200;8.220;2023-02-28T13:38:49;11.80;;;6.20;;
4462;SDS011;2244;50.200;8.220;2023-02-28T13:42:01;11.50;;;6.33;;
4462;SDS011;2244;50.200;8.220;2023-02-28T13:46:29;12.40;;;6.50;;
4462;SDS011;2244;50.200;8.220;2023-02-28T13:49:17;12.00;;;6.20;;
4462;SDS011;2244;50.200;8.220;2023-02-28T13:51:45;11.53;;;6.07;;
4462;SDS011;2244;50.200;8.220;2023-02-28T14:02:37;17.57;;;7.00;;
4462;SDS011;2244;50.200;8.220;2023-02-28T14:05:06;14.37;;;7.20;;
4462;SDS011;2244;50.200;8.220;2023-02-28T14:07:53;11.77;;;7.20;;
4462;SDS011;2244;50.200;8.220;2023-02-28T14:10:07;14.40;;;6.23;;
4462;SDS011;2244;50.200;8.220;2023-02-28T14:12:54;11.97;;;6.90;;
4462;SDS011;2244;50.200;8.220;2023-02-28T14:15:36;12.17;;;6.60;;
4462;SDS011;2244;50.200;8.220;2023-02-28T14:18:05;12.43;;;6.70;;
4462;SDS011;2244;50.200;8.220;2023-02-28T14:20:32;14.00;;;7.87;;
4462;SDS011;2244;50.200;8.220;2023-02-28T14:30:39;11.17;;;6.00;;
4462;SDS011;2244;50.200;8.220;2023-02-28T14:35:56;11.20;;;7.07;;
4462;SDS011;2244;50.200;8.220;2023-02-28T14:38:23;11.30;;;6.17;;
4462;SDS011;2244;50.200;8.220;2023-02-28T14:40:49;12.10;;;6.00;;
4462;SDS011;2244;50.200;8.220;2023-02-28T14:43:21;11.43;;;5.70;;
4462;SDS011;2244;50.200;8.220;2023-02-28T14:45:49;11.67;;;6.40;;
4462;SDS011;2244;50.200;8.220;2023-02-28T14:48:17;11.87;;;6.00;;
4462;SDS011;2244;50.200;8.220;2023-02-28T14:50:51;10.97;;;5.60;;
4462;SDS011;2244;50.200;8.220;2023-02-28T14:53:18;15.13;;;6.10;;
4462;SDS011;2244;50.200;8.220;2023-02-28T14:55:47;12.77;;;5.13;;
4462;SDS011;2244;50.200;8.220;2023-02-28T14:58:24;15.87;;;6.07;;
4462;SDS011;2244;50.200;8.220;2023-02-28T15:00:48;16.10;;;6.73;;
4462;SDS011;2244;50.200;8.220;2023-02-28T15:05:51;13.40;;;5.97;;
4462;SDS011;2244;50.200;8.220;2023-02-28T15:08:19;11.87;;;6.30;;
4462;SDS011;2244;50.200;8.220;2023-02-28T15:10:53;11.20;;;6.27;;
4462;SDS011;2244;50.200;8.220;2023-02-28T15:13:21;11.93;;;5.67;;
4462;SDS011;2244;50.200;8.220;2023-02-28T15:15:53;13.60;;;6.70;;
4462;SDS011;2244;50.200;8.220;2023-02-28T15:18:28;13.63;;;7.13;;
4462;SDS011;2244;50.200;8.220;2023-02-28T15:20:55;11.23;;;6.23;;
4462;SDS011;2244;50.200;8.220;2023-02-28T15:23:23;12.47;;;6.10;;
4462;SDS011;2244;50.200;8.220;2023-02-28T15:25:51;11.07;;;5.80;;
4462;SDS011;2244;50.200;8.220;2023-02-28T15:28:20;11.77;;;5.60;;
4462;SDS011;2244;50.200;8.220;2023-02-28T15:30:57;12.40;;;5.60;;
4462;SDS011;2244;50.200;8.220;2023-02-28T15:33:21;14.00;;;6.13;;
4462;SDS011;2244;50.200;8.220;2023-02-28T15:35:49;12.97;;;5.70;;
4462;SDS011;2244;50.200;8.220;2023-02-28T15:38:28;11.30;;;6.50;;
4462;SDS011;2244;50.200;8.220;2023-02-28T15:40:56;10.30;;;5.63;;
4462;SDS011;2244;50.200;8.220;2023-02-28T15:46:03;14.20;;;6.40;;
4462;SDS011;2244;50.200;8.220;2023-02-28T15:48:32;13.40;;;7.30;;
4462;SDS011;2244;50.200;8.220;2023-02-28T15:51:07;12.50;;;6.47;;
4462;SDS011;2244;50.200;8.220;2023-02-28T15:53:59;13.27;;;7.30;;
4462;SDS011;2244;50.200;8.220;2023-02-28T15:56:07;14.40;;;7.80;;
4462;SDS011;2244;50.200;8.220;2023-02-28T15:58:34;14.07;;;7.50;;
4462;SDS011;2244;50.200;8.220;2023-02-28T16:01:16;15.60;;;8.77;;
4462;SDS011;2244;50.200;8.220;2023-02-28T16:03:45;12.33;;;6.07;;
4462;SDS011;2244;50.200;8.220;2023-02-28T16:06:21;11.17;;;6.07;;
4462;SDS011;2244;50.200;8.220;2023-02-28T16:08:47;12.00;;;6.57;;
4462;SDS011;2244;50.200;8.220;2023-02-28T16:11:16;13.70;;;7.60;;
4462;SDS011;2244;50.200;8.220;2023-02-28T16:13:44;13.77;;;6.30;;
4462;SDS011;2244;50.200;8.220;2023-02-28T16:16:15;13.37;;;6.20;;
4462;SDS011;2244;50.200;8.220;2023-02-28T16:18:43;12.77;;;6.77;;
4462;SDS011;2244;50.200;8.220;2023-02-28T16:21:10;12.07;;;6.97;;
4462;SDS011;2244;50.200;8.220;2023-02-28T16:23:38;16.83;;;6.17;;
4462;SDS011;2244;50.200;8.220;2023-02-28T16:26:05;12.10;;;6.50;;
4462;SDS011;2244;50.200;8.220;2023-02-28T16:28:34;13.50;;;7.30;;
4462;SDS011;2244;50.200;8.220;2023-02-28T16:31:02;11.27;;;5.87;;
4462;SDS011;2244;50.200;8.220;2023-02-28T16:33:31;12.57;;;5.47;;
4462;SDS011;2244;50.200;8.220;2023-02-28T16:35:59;12.57;;;6.40;;
4462;SDS011;2244;50.200;8.220;2023-02-28T16:38:27;10.80;;;5.77;;
4462;SDS011;2244;50.200;8.220;2023-02-28T16:40:55;14.80;;;5.73;;